Time;durP1;ratioP1;P1;durP2;ratioP2;P2;SDS_P1;SDS_P2;PMS_P1;PMS_P2;Temp;Humidity;BMP_temperature;BMP_pressure;BME280_temperature;BME280_humidity;BME280_pressure;Samples;Min_cycle;Max_cycle;Signal;HPM_P1;HPM_P2
2023/11/19 00:02:07;;;;;;;0.00;0.00;;;;;;;20.95;42.27;99892.50;4580712;28;20601;-61
2023/11/19 00:04:17;;;;;;;0.15;0.15;;;;;;;20.98;42.57;99891.75;4580168;28;20079;-61
2023/11/19 00:06:28;;;;;;;0.10;0.10;;;;;;;20.98;42.53;99880.28;4580618;28;20635;-61
2023/11/19 00:08:38;;;;;;;0.20;0.20;;;;;;;21.02;42.40;99878.31;4580083;28;20023;-62
2023/11/19 00:10:48;;;;;;;0.10;0.10;;;;;;;21.02;42.42;99866.84;4580696;28;20051;-61
2023/11/19 00:12:59;;;;;;;0.10;0.10;;;;;;;21.01;42.19;99856.56;4562898;28;20075;-61
2023/11/19 00:15:11;;;;;;;0.20;0.10;;;;;;;21.05;41.99;99863.19;4580364;28;20155;-61
2023/11/19 00:17:21;;;;;;;0.25;0.20;;;;;;;21.02;41.91;99863.97;4579877;28;20119;-61
2023/11/19 00:19:32;;;;;;;0.10;0.10;;;;;;;21.02;42.26;99857.41;4580487;28;20119;-61
2023/11/19 00:21:42;;;;;;;0.10;0.10;;;;;;;21.03;42.64;99853.31;4580430;28;20028;-61
2023/11/19 00:23:53;;;;;;;1.10;0.17;;;;;;;21.02;42.13;99863.13;4580261;28;20051;-62
2023/11/19 00:26:05;;;;;;;0.10;0.10;;;;;;;21.04;42.39;99858.66;4580469;28;20051;-61
2023/11/19 00:28:16;;;;;;;0.25;0.20;;;;;;;21.04;42.15;99855.78;4580175;28;20661;-61
2023/11/19 00:30:27;;;;;;;0.20;0.20;;;;;;;21.03;42.18;99851.25;4578588;28;20020;-61
2023/11/19 00:32:39;;;;;;;0.68;0.20;;;;;;;21.01;42.03;99847.94;4580270;28;20036;-61
2023/11/19 00:34:50;;;;;;;0.10;0.10;;;;;;;21.02;42.50;99843.88;4578403;27;20085;-62
2023/11/19 00:37:00;;;;;;;0.10;0.10;;;;;;;21.04;42.28;99841.44;4579862;27;20069;-61
2023/11/19 00:39:11;;;;;;;0.10;0.10;;;;;;;21.03;42.70;99848.41;4578479;28;20044;-61
2023/11/19 00:41:22;;;;;;;0.10;0.10;;;;;;;20.98;42.25;99845.84;4578430;28;20481;-61
2023/11/19 00:43:32;;;;;;;0.10;0.10;;;;;;;21.04;42.60;99850.03;4579932;28;20035;-63
2023/11/19 00:45:43;;;;;;;0.10;0.10;;;;;;;21.02;42.65;99846.75;4580003;28;20465;-62
2023/11/19 00:47:53;;;;;;;0.00;0.00;;;;;;;21.03;42.95;99836.09;4578285;28;20115;-62
2023/11/19 00:50:04;;;;;;;0.00;0.00;;;;;;;21.02;42.79;99837.31;4578097;28;20036;-61
2023/11/19 00:52:16;;;;;;;0.00;0.00;;;;;;;21.04;42.72;99832.03;4580564;28;20028;-61
2023/11/19 00:54:26;;;;;;;0.03;0.03;;;;;;;21.00;42.84;99819.66;4578226;28;20036;-61
2023/11/19 00:56:37;;;;;;;0.00;0.00;;;;;;;21.03;42.76;99824.59;4580151;28;20083;-61
2023/11/19 00:58:47;;;;;;;0.00;0.00;;;;;;;21.00;43.02;99822.53;4579863;28;20107;-62
2023/11/19 01:00:58;;;;;;;0.10;0.10;;;;;;;21.02;43.10;99825.84;4579963;28;20020;-61
2023/11/19 01:03:08;;;;;;;0.10;0.10;;;;;;;20.99;42.65;99823.75;4580160;28;20042;-62
2023/11/19 01:05:21;;;;;;;0.00;0.00;;;;;;;21.01;42.94;99822.13;4561007;28;20064;-61
2023/11/19 01:07:32;;;;;;;0.00;0.00;;;;;;;21.02;42.81;99822.97;4579538;28;20875;-61
2023/11/19 01:09:42;;;;;;;0.00;0.00;;;;;;;21.03;42.94;99821.72;4560020;28;20032;-61
2023/11/19 01:11:54;;;;;;;0.10;0.10;;;;;;;20.98;43.29;99799.97;4579762;28;20166;-61
2023/11/19 01:14:04;;;;;;;0.10;0.10;;;;;;;21.02;42.74;99815.19;4577520;28;20680;-61
2023/11/19 01:16:15;;;;;;;0.10;0.10;;;;;;;21.03;43.40;99816.84;4578698;28;20082;-61
2023/11/19 01:18:26;;;;;;;0.03;0.03;;;;;;;21.00;43.08;99809.00;4578498;27;20036;-61
2023/11/19 01:20:36;;;;;;;0.30;0.13;;;;;;;21.01;43.22;99819.25;4561817;28;20028;-61
2023/11/19 01:22:48;;;;;;;0.00;0.00;;;;;;;20.99;43.03;99809.41;4579716;28;20044;-61
2023/11/19 01:24:58;;;;;;;0.10;0.10;;;;;;;21.02;43.38;99820.94;4578765;28;20039;-61
2023/11/19 01:27:09;;;;;;;0.10;0.10;;;;;;;21.02;43.18;99814.34;4577973;28;20073;-62
2023/11/19 01:29:20;;;;;;;0.10;0.10;;;;;;;20.98;43.62;99802.03;4560626;28;20039;-61
2023/11/19 01:31:33;;;;;;;0.00;0.00;;;;;;;21.00;43.22;99811.03;4560571;28;20511;-61
2023/11/19 01:33:44;;;;;;;0.10;0.10;;;;;;;21.02;43.25;99815.19;4559964;28;20075;-62
2023/11/19 01:35:55;;;;;;;0.10;0.10;;;;;;;21.01;43.92;99807.78;4560944;28;20032;-62
2023/11/19 01:38:06;;;;;;;0.00;0.00;;;;;;;20.97;43.63;99803.22;4577540;28;20118;-62
2023/11/19 01:40:20;;;;;;;0.10;0.10;;;;;;;21.01;44.04;99809.84;4579357;28;20046;-62
2023/11/19 01:42:37;;;;;;;0.10;0.10;;;;;;;21.02;43.83;99812.31;4579037;28;20123;-62
2023/11/19 01:44:58;;;;;;;0.10;0.10;;;;;;;21.02;43.77;99806.59;4560161;28;20729;-62
2023/11/19 01:47:09;;;;;;;0.65;0.00;;;;;;;20.93;43.95;99796.59;4577858;28;20040;-62
2023/11/19 01:49:19;;;;;;;0.08;0.03;;;;;;;21.00;44.04;99806.13;4576694;28;20032;-62
2023/11/19 01:51:30;;;;;;;0.10;0.10;;;;;;;21.01;44.23;99807.78;4577607;28;20044;-63
2023/11/19 01:53:41;;;;;;;0.28;0.10;;;;;;;21.00;44.29;99803.28;4578749;28;20043;-62
2023/11/19 01:55:52;;;;;;;0.20;0.10;;;;;;;20.99;44.00;99795.06;4577471;28;20070;-63
2023/11/19 01:58:03;;;;;;;0.00;0.00;;;;;;;20.99;44.41;99792.19;4578552;28;20032;-62
2023/11/19 02:00:13;;;;;;;0.10;0.10;;;;;;;21.01;44.47;99776.22;4560264;28;20036;-62
2023/11/19 02:02:26;;;;;;;0.10;0.10;;;;;;;20.97;44.27;99765.91;4579320;28;20059;-62
2023/11/19 02:04:38;;;;;;;0.20;0.20;;;;;;;20.98;44.68;99768.41;4578763;28;20028;-63
2023/11/19 02:06:52;;;;;;;0.10;0.10;;;;;;;20.97;44.63;99769.63;4579087;28;20032;-62
2023/11/19 02:09:07;;;;;;;0.10;0.10;;;;;;;20.98;44.74;99754.06;4578484;28;20063;-62
2023/11/19 02:11:17;;;;;;;0.10;0.10;;;;;;;21.00;44.54;99740.16;4578893;28;20039;-62
2023/11/19 02:13:30;;;;;;;0.10;0.10;;;;;;;20.98;44.59;99736.03;4578781;28;20032;-63
2023/11/19 02:15:41;;;;;;;0.10;0.10;;;;;;;21.00;44.97;99740.16;4576949;28;20993;-62
2023/11/19 02:17:52;;;;;;;0.10;0.10;;;;;;;20.98;44.80;99730.31;4559910;28;20066;-62
2023/11/19 02:20:15;;;;;;;0.15;0.15;;;;;;;20.98;45.05;99736.84;4576984;28;20109;-62
2023/11/19 02:22:25;;;;;;;0.38;0.10;;;;;;;20.99;45.14;99744.25;4578792;28;20044;-62
2023/11/19 02:24:36;;;;;;;0.15;0.15;;;;;;;20.94;45.02;99724.47;4578538;28;20043;-63
2023/11/19 02:27:07;;;;;;;0.20;0.20;;;;;;;21.00;45.20;99739.31;4577165;27;20035;-62
2023/11/19 02:29:17;;;;;;;0.20;0.20;;;;;;;20.99;45.15;99729.91;4578607;28;20028;-62
2023/11/19 02:31:28;;;;;;;0.17;0.13;;;;;;;20.97;45.49;99723.72;4578598;28;20040;-62
2023/11/19 02:33:38;;;;;;;0.20;0.20;;;;;;;20.98;45.31;99725.38;4559692;28;20044;-62
2023/11/19 02:35:49;;;;;;;0.10;0.10;;;;;;;20.98;45.49;99721.69;4576716;28;20047;-62
2023/11/19 02:38:00;;;;;;;0.20;0.20;;;;;;;20.95;45.74;99691.69;4560948;28;20033;-62
2023/11/19 02:40:11;;;;;;;0.10;0.10;;;;;;;20.98;45.52;99695.88;4578839;28;20028;-62
2023/11/19 02:42:21;;;;;;;0.55;0.20;;;;;;;20.97;45.50;99695.03;4577368;27;20040;-62
2023/11/19 02:44:32;;;;;;;0.17;0.17;;;;;;;20.98;45.60;99690.13;4577850;27;20068;-62
2023/11/19 02:46:43;;;;;;;0.20;0.20;;;;;;;20.96;46.00;99687.66;4577571;28;20516;-62
2023/11/19 02:48:53;;;;;;;0.20;0.20;;;;;;;20.97;45.75;99689.31;4576707;28;20073;-62
2023/11/19 02:51:04;;;;;;;0.20;0.20;;;;;;;20.96;46.08;99684.78;4578512;28;20139;-62
2023/11/19 02:53:16;;;;;;;0.20;0.20;;;;;;;20.92;46.17;99681.00;4578423;28;20036;-63
2023/11/19 02:55:30;;;;;;;0.20;0.20;;;;;;;20.96;46.24;99702.00;4578819;28;20135;-62
2023/11/19 02:57:46;;;;;;;0.15;0.15;;;;;;;20.96;46.49;99715.47;4563908;27;20945;-62
2023/11/19 02:59:56;;;;;;;0.10;0.10;;;;;;;20.95;46.13;99720.38;4580979;28;21305;-63
2023/11/19 03:02:11;;;;;;;0.20;0.20;;;;;;;20.96;46.15;99722.09;4563906;28;20028;-62
2023/11/19 03:04:23;;;;;;;0.20;0.15;;;;;;;20.97;46.84;99718.00;4562508;28;20175;-63
2023/11/19 03:06:33;;;;;;;0.38;0.20;;;;;;;20.96;46.67;99716.34;4564647;28;20032;-62
2023/11/19 03:08:43;;;;;;;0.10;0.10;;;;;;;20.92;46.86;99703.13;4581208;28;20477;-62
2023/11/19 03:10:54;;;;;;;0.20;0.20;;;;;;;20.95;46.97;99694.56;4562773;28;20379;-67
2023/11/19 03:13:04;;;;;;;0.20;0.20;;;;;;;20.97;46.72;99691.34;4581209;28;20031;-63
2023/11/19 03:15:15;;;;;;;0.15;0.15;;;;;;;20.97;47.11;99688.47;4581137;28;20051;-63
2023/11/19 03:17:26;;;;;;;0.17;0.17;;;;;;;20.92;47.17;99686.75;4581289;27;20073;-62
2023/11/19 03:19:36;;;;;;;0.20;0.20;;;;;;;20.96;47.11;99690.53;4580726;28;20040;-62
2023/11/19 03:21:48;;;;;;;0.20;0.20;;;;;;;20.95;46.75;99685.97;4561653;28;20040;-62
2023/11/19 03:24:00;;;;;;;0.20;0.20;;;;;;;20.96;46.72;99689.66;4580915;28;20039;-62
2023/11/19 03:26:11;;;;;;;0.30;0.10;;;;;;;20.92;47.14;99674.44;4581118;28;20023;-62
2023/11/19 03:28:21;;;;;;;0.28;0.20;;;;;;;20.94;46.73;99678.59;4579392;28;20075;-62
2023/11/19 03:30:32;;;;;;;0.20;0.20;;;;;;;20.91;46.67;99656.41;4581404;28;20032;-62
2023/11/19 03:32:43;;;;;;;0.20;0.20;;;;;;;20.85;46.63;99646.53;4581336;28;20036;-62
2023/11/19 03:34:54;;;;;;;0.30;0.20;;;;;;;20.91;47.17;99649.84;4581004;28;21048;-62
2023/11/19 03:37:04;;;;;;;0.30;0.30;;;;;;;20.95;46.69;99671.63;4564532;28;20489;-62
2023/11/19 03:39:14;;;;;;;0.10;0.10;;;;;;;20.94;46.55;99672.00;4563152;28;20107;-62
2023/11/19 03:41:25;;;;;;;0.73;0.35;;;;;;;20.82;47.05;99647.28;4580883;28;20036;-62
2023/11/19 03:43:35;;;;;;;0.20;0.20;;;;;;;20.94;47.00;99660.53;4580251;28;20123;-62
2023/11/19 03:45:46;;;;;;;0.40;0.20;;;;;;;20.92;46.73;99666.66;4579001;28;20033;-62
2023/11/19 03:47:56;;;;;;;0.52;0.20;;;;;;;20.93;47.23;99673.25;4562543;28;20036;-62
2023/11/19 03:50:10;;;;;;;0.38;0.20;;;;;;;20.94;46.78;99661.38;4579302;28;20059;-62
2023/11/19 03:52:21;;;;;;;0.45;0.20;;;;;;;20.96;47.02;99666.72;4581388;28;20913;-62
2023/11/19 03:54:32;;;;;;;0.15;0.15;;;;;;;20.94;46.79;99667.09;4562359;28;20043;-62
2023/11/19 03:56:43;;;;;;;0.25;0.25;;;;;;;20.96;47.24;99669.59;4562904;28;20036;-62
2023/11/19 03:58:54;;;;;;;0.35;0.30;;;;;;;20.93;46.67;99679.78;4580099;28;20040;-62
2023/11/19 04:01:05;;;;;;;0.30;0.30;;;;;;;20.96;46.89;99679.06;4562707;28;20087;-62
2023/11/19 04:03:16;;;;;;;0.25;0.20;;;;;;;20.83;46.70;99657.56;4578997;28;20074;-61
2023/11/19 04:05:26;;;;;;;0.35;0.20;;;;;;;20.89;46.76;99673.19;4580464;28;21212;-62
2023/11/19 04:07:37;;;;;;;0.40;0.28;;;;;;;20.94;46.77;99684.31;4577697;28;20118;-62
2023/11/19 04:09:47;;;;;;;0.52;0.30;;;;;;;20.94;46.75;99692.09;4579132;28;20160;-61
2023/11/19 04:11:58;;;;;;;0.73;0.30;;;;;;;20.94;47.11;99695.78;4580641;28;20459;-62
2023/11/19 04:14:09;;;;;;;0.43;0.30;;;;;;;20.83;47.03;99683.38;4562486;28;20044;-62
2023/11/19 04:16:27;;;;;;;0.70;0.38;;;;;;;20.94;46.84;99690.06;4578574;28;20032;-62
2023/11/19 04:18:38;;;;;;;1.27;0.40;;;;;;;20.93;46.77;99694.13;4561934;28;20087;-62
2023/11/19 04:20:48;;;;;;;0.28;0.20;;;;;;;20.92;47.18;99675.28;4561705;28;20037;-62
2023/11/19 04:23:00;;;;;;;0.30;0.30;;;;;;;20.93;47.28;99694.13;4563045;28;20539;-61
2023/11/19 04:25:11;;;;;;;0.57;0.35;;;;;;;20.93;47.17;99684.72;4580350;28;20020;-62
2023/11/19 04:27:21;;;;;;;0.63;0.30;;;;;;;20.93;47.39;99688.38;4580285;28;20032;-61
2023/11/19 04:29:32;;;;;;;0.88;0.35;;;;;;;20.92;47.10;99686.75;4580469;28;20040;-62
2023/11/19 04:31:44;;;;;;;1.60;0.32;;;;;;;20.92;47.35;99683.03;4578714;28;20389;-61
2023/11/19 04:33:55;;;;;;;0.95;0.40;;;;;;;20.94;47.35;99687.19;4580014;28;20147;-62
2023/11/19 04:36:07;;;;;;;0.40;0.28;;;;;;;20.94;47.24;99687.19;4580279;28;20110;-62
2023/11/19 04:38:17;;;;;;;0.57;0.38;;;;;;;20.93;47.51;99687.59;4579351;28;20838;-62
2023/11/19 04:40:27;;;;;;;0.80;0.40;;;;;;;20.93;47.37;99684.72;4580097;28;22430;-62
2023/11/19 04:42:40;;;;;;;1.13;0.40;;;;;;;20.90;47.10;99679.75;4561542;28;20440;-62
2023/11/19 04:44:50;;;;;;;0.45;0.30;;;;;;;20.93;47.71;99681.84;4579512;28;20114;-61
2023/11/19 04:47:01;;;;;;;1.25;0.40;;;;;;;20.91;47.31;99676.50;4579867;28;20071;-61
2023/11/19 04:49:12;;;;;;;0.75;0.40;;;;;;;20.92;47.54;99685.91;4579621;28;20038;-62
2023/11/19 04:51:22;;;;;;;0.95;0.50;;;;;;;20.90;47.57;99677.69;4579981;28;20131;-62
2023/11/19 04:53:33;;;;;;;1.15;0.70;;;;;;;20.92;47.39;99692.47;4579461;28;20115;-62
2023/11/19 04:55:44;;;;;;;1.10;0.40;;;;;;;20.91;47.56;99678.53;4579979;28;20519;-61
2023/11/19 04:57:54;;;;;;;0.65;0.40;;;;;;;20.91;47.52;99678.53;4579694;28;20068;-62
2023/11/19 05:00:05;;;;;;;1.00;0.50;;;;;;;20.90;47.68;99666.22;4638830;22;20492;-63
2023/11/19 05:02:16;;;;;;;0.98;0.60;;;;;;;20.90;47.53;99676.91;4595159;27;20057;-62
2023/11/19 05:04:26;;;;;;;1.70;0.60;;;;;;;20.92;47.62;99674.44;4581661;27;20657;-62
2023/11/19 05:06:37;;;;;;;1.63;0.60;;;;;;;20.90;47.42;99676.91;4598225;27;20024;-62
2023/11/19 05:08:47;;;;;;;1.98;0.70;;;;;;;20.91;47.40;99682.22;4597465;27;21204;-62
2023/11/19 05:10:59;;;;;;;0.85;0.50;;;;;;;20.89;46.92;99675.22;4598013;27;20032;-63
2023/11/19 05:13:10;;;;;;;1.05;0.50;;;;;;;20.91;47.22;99678.53;4597509;27;20042;-62
2023/11/19 05:15:20;;;;;;;0.98;0.57;;;;;;;20.91;47.12;99690.00;4576599;27;20106;-62
2023/11/19 05:17:31;;;;;;;1.45;0.68;;;;;;;20.89;47.18;99680.97;4600078;27;20035;-62
2023/11/19 05:19:41;;;;;;;1.35;0.60;;;;;;;20.90;46.79;99694.91;4597944;27;20024;-62
2023/11/19 05:21:52;;;;;;;1.10;0.60;;;;;;;20.89;46.82;99693.25;4596171;27;20439;-62
2023/11/19 05:24:06;;;;;;;0.93;0.63;;;;;;;20.90;46.34;99694.09;4595721;27;21121;-62
2023/11/19 05:26:20;;;;;;;1.60;0.80;;;;;;;20.92;46.49;99694.50;4596096;27;20062;-62
2023/11/19 05:28:30;;;;;;;2.03;0.70;;;;;;;20.90;46.19;99696.97;4595624;27;20736;-62
2023/11/19 05:30:41;;;;;;;1.90;0.70;;;;;;;20.90;46.38;99692.03;4582321;27;20126;-62
2023/11/19 05:32:51;;;;;;;2.22;0.60;;;;;;;20.88;46.41;99702.25;4577172;27;20104;-62
2023/11/19 05:35:02;;;;;;;1.80;0.70;;;;;;;20.90;45.99;99706.38;4597045;27;20069;-62
2023/11/19 05:37:13;;;;;;;1.77;0.80;;;;;;;20.86;45.81;99693.22;4597310;27;20806;-62
2023/11/19 05:39:24;;;;;;;1.63;0.70;;;;;;;20.90;45.82;99705.56;4579305;27;20043;-63
2023/11/19 05:41:34;;;;;;;1.63;0.70;;;;;;;20.91;45.92;99715.81;4583683;27;20495;-62
2023/11/19 05:43:45;;;;;;;1.67;0.70;;;;;;;20.79;45.69;99697.66;4596832;27;20388;-62
2023/11/19 05:45:56;;;;;;;2.35;1.00;;;;;;;20.90;45.88;99705.56;4595128;27;20041;-62
2023/11/19 05:48:08;;;;;;;2.17;0.90;;;;;;;20.90;45.59;99714.19;4595783;27;20036;-63
2023/11/19 05:50:19;;;;;;;3.17;1.20;;;;;;;20.91;45.51;99712.94;4595738;27;20591;-62
2023/11/19 05:52:33;;;;;;;2.67;0.88;;;;;;;20.85;45.62;99712.50;4596789;27;20023;-62
2023/11/19 05:54:44;;;;;;;2.17;1.00;;;;;;;20.90;45.15;99728.53;4593957;27;20039;-63
2023/11/19 05:56:54;;;;;;;1.73;0.80;;;;;;;20.87;45.30;99715.78;4582068;27;20038;-63
2023/11/19 05:59:07;;;;;;;2.75;0.90;;;;;;;20.89;44.88;99715.38;4564939;27;20524;-63
2023/11/19 06:01:17;;;;;;;1.92;0.82;;;;;;;20.82;45.13;99698.09;4595915;27;21219;-62
2023/11/19 06:03:28;;;;;;;2.85;0.90;;;;;;;20.91;44.97;99719.53;4596243;27;20024;-63
2023/11/19 06:05:38;;;;;;;2.40;0.90;;;;;;;20.90;45.03;99723.59;4596714;27;20050;-62
2023/11/19 06:07:49;;;;;;;1.95;0.80;;;;;;;20.86;45.06;99701.81;4595665;27;20028;-62
2023/11/19 06:10:00;;;;;;;1.98;0.93;;;;;;;20.88;45.17;99708.84;4597918;27;20023;-62
2023/11/19 06:12:10;;;;;;;1.90;0.73;;;;;;;20.88;45.05;99700.22;4576571;27;20048;-62
2023/11/19 06:14:21;;;;;;;1.50;0.73;;;;;;;20.91;44.90;99698.63;4595828;27;20044;-62
2023/11/19 06:16:31;;;;;;;2.25;0.82;;;;;;;20.89;45.16;99706.78;4595695;27;20489;-62
2023/11/19 06:18:43;;;;;;;1.55;0.70;;;;;;;20.89;44.97;99710.47;4597224;27;20122;-63
2023/11/19 06:20:54;;;;;;;1.52;0.90;;;;;;;20.88;44.79;99711.72;4596151;27;20035;-62
2023/11/19 06:23:04;;;;;;;2.10;0.98;;;;;;;20.86;44.41;99710.44;4597856;27;20492;-62
2023/11/19 06:25:15;;;;;;;1.92;0.90;;;;;;;20.90;44.49;99731.41;4594212;27;20044;-62
2023/11/19 06:27:26;;;;;;;2.70;0.90;;;;;;;20.75;44.99;99704.56;4596482;27;20060;-62
2023/11/19 06:29:36;;;;;;;3.28;0.82;;;;;;;20.89;44.94;99733.44;4596308;27;20030;-62
2023/11/19 06:31:49;;;;;;;2.60;0.90;;;;;;;20.88;44.52;99725.22;4575351;27;20826;-62
2023/11/19 06:34:00;;;;;;;3.05;1.10;;;;;;;20.88;44.50;99723.19;4600156;27;20043;-62
2023/11/19 06:36:10;;;;;;;2.75;1.10;;;;;;;20.80;44.71;99705.03;4599333;27;20032;-63
2023/11/19 06:38:21;;;;;;;2.75;1.05;;;;;;;20.90;44.78;99717.06;4584203;27;20871;-62
2023/11/19 06:40:34;;;;;;;1.85;0.93;;;;;;;20.89;44.31;99727.69;4597981;27;20114;-62
2023/11/19 06:42:45;;;;;;;2.72;1.10;;;;;;;20.88;44.57;99717.44;4597146;27;20065;-62
2023/11/19 06:44:57;;;;;;;2.45;0.90;;;;;;;20.88;44.47;99726.03;4598156;27;20123;-62
2023/11/19 06:47:07;;;;;;;3.55;1.00;;;;;;;20.87;44.49;99724.38;4599618;27;20027;-63
2023/11/19 06:49:18;;;;;;;2.03;0.88;;;;;;;20.88;44.38;99719.47;4581701;27;20047;-64
2023/11/19 06:51:29;;;;;;;3.72;1.00;;;;;;;20.87;44.49;99714.97;4597320;27;20064;-62
2023/11/19 06:53:40;;;;;;;2.65;0.90;;;;;;;20.88;44.52;99723.19;4601097;27;20039;-62
2023/11/19 06:55:50;;;;;;;3.45;1.35;;;;;;;20.86;44.18;99721.91;4599422;27;20082;-62
2023/11/19 06:58:02;;;;;;;3.00;1.08;;;;;;;20.88;44.65;99734.66;4598536;27;20090;-63
2023/11/19 07:00:13;;;;;;;2.60;0.88;;;;;;;20.86;44.27;99730.50;4598150;27;20032;-62
2023/11/19 07:02:23;;;;;;;2.67;1.08;;;;;;;20.77;44.56;99710.75;4597269;27;20040;-62
2023/11/19 07:04:34;;;;;;;3.58;1.13;;;;;;;20.87;44.18;99741.59;4598160;27;20391;-62
2023/11/19 07:06:44;;;;;;;2.85;1.08;;;;;;;20.84;44.18;99736.63;4599440;27;20044;-63
2023/11/19 07:08:55;;;;;;;3.80;1.00;;;;;;;20.81;44.41;99737.41;4602547;27;20016;-63
2023/11/19 07:11:06;;;;;;;2.53;0.90;;;;;;;20.86;43.97;99744.84;4599009;27;20118;-62
2023/11/19 07:13:16;;;;;;;3.10;1.13;;;;;;;20.85;44.15;99740.34;4599344;27;20031;-63
2023/11/19 07:15:27;;;;;;;3.42;0.90;;;;;;;20.83;44.03;99753.00;4578727;27;20052;-63
2023/11/19 07:17:39;;;;;;;3.63;1.00;;;;;;;20.86;44.02;99756.31;4578686;27;20035;-63
2023/11/19 07:19:51;;;;;;;3.30;1.13;;;;;;;20.85;43.83;99767.00;4589107;27;20043;-63
2023/11/19 07:22:01;;;;;;;3.45;1.10;;;;;;;20.86;43.45;99767.78;4583631;27;20043;-63
2023/11/19 07:24:13;;;;;;;2.13;0.85;;;;;;;20.73;43.35;99747.13;4597375;27;20053;-63
2023/11/19 07:26:24;;;;;;;3.35;1.05;;;;;;;20.84;43.47;99771.06;4597188;27;20039;-62
2023/11/19 07:28:34;;;;;;;2.97;1.00;;;;;;;20.85;43.37;99778.47;4567429;27;20052;-62
2023/11/19 07:30:45;;;;;;;2.92;1.20;;;;;;;20.85;43.30;99778.47;4565508;27;20041;-62
2023/11/19 07:32:55;;;;;;;3.22;1.00;;;;;;;20.87;43.54;99776.00;4599732;27;20044;-62
2023/11/19 07:35:06;;;;;;;2.78;0.90;;;;;;;20.87;43.09;99760.84;4598096;27;20111;-62
2023/11/19 07:37:17;;;;;;;4.28;1.30;;;;;;;20.90;43.07;99757.22;4583544;27;20860;-62
2023/11/19 07:39:27;;;;;;;3.08;1.02;;;;;;;20.85;43.09;99764.13;4597270;27;20102;-62
2023/11/19 07:41:38;;;;;;;3.28;1.10;;;;;;;20.89;43.13;99764.13;4598348;27;20031;-62
2023/11/19 07:43:50;;;;;;;2.58;0.90;;;;;;;20.87;43.15;99770.28;4581208;27;20086;-62
2023/11/19 07:46:01;;;;;;;2.67;1.13;;;;;;;20.85;42.88;99769.84;4597526;27;20036;-62
2023/11/19 07:48:13;;;;;;;3.30;1.33;;;;;;;20.85;43.22;99772.72;4597746;27;20120;-62
2023/11/19 07:50:25;;;;;;;2.47;0.98;;;;;;;20.88;43.13;99774.81;4599067;27;20036;-62
2023/11/19 07:52:35;;;;;;;2.50;1.05;;;;;;;20.89;42.80;99787.94;4596869;27;20020;-62
2023/11/19 07:54:45;;;;;;;2.65;1.00;;;;;;;20.87;43.31;99786.66;4596897;27;20048;-62
2023/11/19 07:56:56;;;;;;;2.78;1.17;;;;;;;20.88;42.72;99786.28;4601139;27;20088;-62
2023/11/19 07:59:06;;;;;;;2.30;0.93;;;;;;;20.88;42.92;99794.06;4597081;27;20089;-62
2023/11/19 08:01:17;;;;;;;3.47;1.20;;;;;;;20.75;42.74;99776.25;4598332;27;20028;-62
2023/11/19 08:03:27;;;;;;;2.00;0.90;;;;;;;20.89;42.75;99785.06;4566142;27;20583;-62
2023/11/19 08:05:39;;;;;;;3.08;1.20;;;;;;;20.88;42.89;99788.31;4598796;27;20499;-62
2023/11/19 08:07:49;;;;;;;2.25;1.10;;;;;;;20.88;42.65;99794.88;4597705;27;20520;-62
2023/11/19 08:10:00;;;;;;;3.38;1.20;;;;;;;20.87;42.58;99798.94;4596269;27;20035;-62
2023/11/19 08:12:10;;;;;;;2.63;0.80;;;;;;;20.89;42.63;99808.00;4598913;27;20028;-62
2023/11/19 08:14:20;;;;;;;4.55;1.30;;;;;;;20.87;42.55;99798.94;4598694;27;20047;-62
2023/11/19 08:16:31;;;;;;;3.42;1.20;;;;;;;20.88;42.52;99803.50;4597228;27;20032;-62
2023/11/19 08:18:43;;;;;;;3.33;0.93;;;;;;;20.90;42.72;99805.97;4582188;27;20027;-62
2023/11/19 08:20:54;;;;;;;2.15;0.85;;;;;;;20.89;42.41;99805.13;4599545;27;20806;-62
2023/11/19 08:23:04;;;;;;;3.33;1.02;;;;;;;20.89;42.56;99808.00;4583941;27;20032;-62
2023/11/19 08:25:15;;;;;;;2.72;0.95;;;;;;;20.88;42.30;99806.38;4597981;27;20039;-62
2023/11/19 08:27:26;;;;;;;2.85;1.00;;;;;;;20.88;42.25;99812.09;4583519;27;20036;-62
2023/11/19 08:29:37;;;;;;;3.08;1.20;;;;;;;20.89;42.32;99808.00;4598391;27;20119;-62
2023/11/19 08:31:47;;;;;;;3.40;1.17;;;;;;;20.89;42.18;99822.34;4582883;27;20035;-62
2023/11/19 08:33:57;;;;;;;3.33;1.27;;;;;;;20.83;42.38;99803.81;4596931;27;20633;-62
2023/11/19 08:36:08;;;;;;;4.95;1.38;;;;;;;20.89;42.56;99808.00;4596070;27;20050;-62
2023/11/19 08:38:19;;;;;;;3.25;1.20;;;;;;;20.88;42.18;99819.88;4597996;27;21234;-63
2023/11/19 08:40:29;;;;;;;2.45;1.10;;;;;;;20.91;42.28;99819.94;4582436;27;20069;-62
2023/11/19 08:42:40;;;;;;;2.92;1.02;;;;;;;20.86;42.25;99796.47;4582945;27;20036;-62
2023/11/19 08:44:54;;;;;;;3.42;1.38;;;;;;;20.90;42.21;99814.59;4598864;27;20028;-62
2023/11/19 08:47:05;;;;;;;3.35;1.33;;;;;;;20.88;42.07;99809.22;4571219;27;20821;-62
2023/11/19 08:49:15;;;;;;;3.08;1.30;;;;;;;20.91;42.57;99821.97;4582583;27;20024;-62
2023/11/19 08:51:28;;;;;;;3.28;1.10;;;;;;;20.87;42.25;99816.16;4569633;27;20138;-62
2023/11/19 08:53:38;;;;;;;3.63;1.20;;;;;;;20.87;42.44;99824.78;4596438;27;20233;-62
2023/11/19 08:55:49;;;;;;;3.55;1.20;;;;;;;20.91;42.51;99821.97;4595426;27;21248;-62
2023/11/19 08:58:00;;;;;;;3.17;1.17;;;;;;;20.91;41.76;99822.78;4597367;27;20036;-62
2023/11/19 09:00:14;;;;;;;2.72;1.20;;;;;;;20.93;41.87;99834.69;4593919;27;20534;-62
2023/11/19 09:02:24;;;;;;;2.53;1.10;;;;;;;20.90;42.06;99826.84;4596085;27;20061;-62
2023/11/19 09:04:35;;;;;;;3.67;1.10;;;;;;;20.91;42.22;99825.66;4581677;27;20074;-62
2023/11/19 09:06:46;;;;;;;2.20;0.95;;;;;;;20.92;41.91;99835.91;4583402;27;20036;-62
2023/11/19 09:09:00;;;;;;;3.15;1.10;;;;;;;20.89;41.60;99824.38;4597563;27;20055;-63
2023/11/19 09:11:11;;;;;;;3.45;1.20;;;;;;;20.94;41.74;99839.22;4597007;27;20031;-62
2023/11/19 09:13:22;;;;;;;2.35;1.00;;;;;;;20.94;41.63;99839.22;4595260;27;20595;-62
2023/11/19 09:15:32;;;;;;;3.88;1.10;;;;;;;20.94;41.87;99839.22;4596796;27;20078;-62
2023/11/19 09:17:42;;;;;;;2.67;0.93;;;;;;;20.94;41.68;99844.97;4594858;27;20031;-62
2023/11/19 09:19:53;;;;;;;3.05;1.08;;;;;;;20.90;41.85;99831.78;4595378;27;20026;-63
2023/11/19 09:22:03;;;;;;;2.58;1.00;;;;;;;20.90;41.85;99838.34;4594747;27;20094;-62
2023/11/19 09:24:15;;;;;;;3.60;1.13;;;;;;;20.92;42.01;99847.38;4596568;27;20035;-62
2023/11/19 09:26:25;;;;;;;2.60;1.00;;;;;;;20.83;41.85;99827.56;4597055;27;20131;-63
2023/11/19 09:28:36;;;;;;;3.03;1.05;;;;;;;20.96;41.82;99844.56;4595869;27;20988;-62
2023/11/19 09:30:46;;;;;;;2.70;1.10;;;;;;;20.95;41.82;99846.59;4596658;27;20078;-62
2023/11/19 09:32:57;;;;;;;3.10;1.10;;;;;;;20.98;41.93;99845.06;4594636;27;20114;-62
2023/11/19 09:35:08;;;;;;;3.55;1.30;;;;;;;20.96;41.57;99844.56;4597287;27;20028;-62
2023/11/19 09:37:18;;;;;;;4.43;1.42;;;;;;;20.96;41.94;99861.78;4577608;27;20031;-63
2023/11/19 09:39:29;;;;;;;3.03;1.20;;;;;;;20.95;42.01;99855.22;4582211;27;20040;-62
2023/11/19 09:41:40;;;;;;;3.03;1.30;;;;;;;20.96;42.13;99859.78;4581721;27;20138;-66
2023/11/19 09:43:51;;;;;;;4.18;1.38;;;;;;;20.95;42.42;99852.34;4597294;27;20040;-62
2023/11/19 09:46:06;;;;;;;3.13;1.10;;;;;;;20.98;42.02;99860.22;4598266;27;20042;-62
2023/11/19 09:48:18;;;;;;;3.17;1.40;;;;;;;20.97;41.87;99864.31;4597112;27;20043;-62
2023/11/19 09:50:30;;;;;;;2.75;1.20;;;;;;;20.99;42.27;99864.75;4597101;27;20120;-62
2023/11/19 09:52:40;;;;;;;3.58;1.00;;;;;;;20.94;42.70;99862.19;4595214;27;20046;-62
2023/11/19 09:54:50;;;;;;;2.63;1.00;;;;;;;20.98;42.43;99865.94;4568561;27;20050;-63
2023/11/19 09:57:05;;;;;;;2.47;1.20;;;;;;;21.00;42.82;99869.25;4596184;27;20376;-62
2023/11/19 09:59:16;;;;;;;2.67;1.05;;;;;;;21.00;42.50;99859.81;4592990;27;20032;-63
2023/11/19 10:01:26;;;;;;;3.40;1.17;;;;;;;20.95;42.51;99855.22;4594206;27;20409;-62
2023/11/19 10:03:39;;;;;;;4.22;1.95;;;;;;;20.97;42.49;99861.44;4595258;27;20067;-62
2023/11/19 10:05:50;;;;;;;5.18;2.95;;;;;;;20.98;42.57;99857.34;4586349;27;20150;-62
2023/11/19 10:08:02;;;;;;;4.97;2.10;;;;;;;21.00;42.28;99849.19;4575217;27;20126;-62
2023/11/19 10:10:18;;;;;;;4.00;1.63;;;;;;;20.98;42.00;99845.84;4582490;27;20166;-62
2023/11/19 10:12:28;;;;;;;3.55;1.40;;;;;;;21.00;42.31;99845.47;4594306;27;20438;-62
2023/11/19 10:14:39;;;;;;;3.70;1.50;;;;;;;20.98;42.23;99843.00;4595092;27;20100;-62
2023/11/19 10:16:50;;;;;;;3.40;1.35;;;;;;;20.98;41.76;99853.66;4594332;27;20687;-62
2023/11/19 10:19:00;;;;;;;2.90;1.23;;;;;;;20.91;42.28;99834.28;4580785;27;20109;-62